sensor_id;sensor_type;location;lat;lon;timestamp;temperature;humidity
19941;DHT22;10132;50.864;5.176;2024-03-08T00:00:24;6.10;99.90
19941;DHT22;10132;50.864;5.176;2024-03-08T00:02:26;6.20;99.90
19941;DHT22;10132;50.864;5.176;2024-03-08T00:04:27;6.10;99.90
19941;DHT22;10132;50.864;5.176;2024-03-08T00:06:29;6.10;99.90
19941;DHT22;10132;50.864;5.176;2024-03-08T00:08:31;6.10;99.90
19941;DHT22;10132;50.864;5.176;2024-03-08T00:10:33;6.00;99.90
19941;DHT22;10132;50.864;5.176;2024-03-08T00:12:37;6.00;99.90
19941;DHT22;10132;50.864;5.176;2024-03-08T00:14:39;5.90;99.90
19941;DHT22;10132;50.864;5.176;2024-03-08T00:16:41;5.90;99.90
19941;DHT22;10132;50.864;5.176;2024-03-08T00:18:44;5.80;99.90
19941;DHT22;10132;50.864;5.176;2024-03-08T00:20:47;5.90;99.90
19941;DHT22;10132;50.864;5.176;2024-03-08T00:22:49;5.80;99.90
19941;DHT22;10132;50.864;5.176;2024-03-08T00:24:50;5.80;99.90
19941;DHT22;10132;50.864;5.176;2024-03-08T00:26:52;5.80;99.90
19941;DHT22;10132;50.864;5.176;2024-03-08T00:28:56;5.80;99.90
19941;DHT22;10132;50.864;5.176;2024-03-08T00:30:59;5.70;99.90
19941;DHT22;10132;50.864;5.176;2024-03-08T00:33:01;5.70;99.90
19941;DHT22;10132;50.864;5.176;2024-03-08T00:35:03;5.80;99.90
19941;DHT22;10132;50.864;5.176;2024-03-08T00:37:05;5.70;99.90
19941;DHT22;10132;50.864;5.176;2024-03-08T00:39:07;5.70;99.90
19941;DHT22;10132;50.864;5.176;2024-03-08T00:41:09;5.70;99.90
19941;DHT22;10132;50.864;5.176;2024-03-08T00:43:11;5.70;99.90
19941;DHT22;10132;50.864;5.176;2024-03-08T00:45:15;5.70;99.90
19941;DHT22;10132;50.864;5.176;2024-03-08T00:47:17;5.70;99.90
19941;DHT22;10132;50.864;5.176;2024-03-08T00:49:19;5.70;99.90
19941;DHT22;10132;50.864;5.176;2024-03-08T00:51:22;5.60;99.90
19941;DHT22;10132;50.864;5.176;2024-03-08T00:53:24;5.60;99.90
19941;DHT22;10132;50.864;5.176;2024-03-08T00:55:26;5.60;99.90
19941;DHT22;10132;50.864;5.176;2024-03-08T00:57:30;5.60;99.90
19941;DHT22;10132;50.864;5.176;2024-03-08T00:59:32;5.60;99.90
19941;DHT22;10132;50.864;5.176;2024-03-08T01:01:35;5.60;99.90
19941;DHT22;10132;50.864;5.176;2024-03-08T01:03:38;5.60;99.90
19941;DHT22;10132;50.864;5.176;2024-03-08T01:05:40;5.60;99.90
19941;DHT22;10132;50.864;5.176;2024-03-08T01:07:42;5.50;99.90
19941;DHT22;10132;50.864;5.176;2024-03-08T01:09:47;5.50;99.90
19941;DHT22;10132;50.864;5.176;2024-03-08T01:11:49;5.50;99.90
19941;DHT22;10132;50.864;5.176;2024-03-08T01:13:51;5.50;99.90
19941;DHT22;10132;50.864;5.176;2024-03-08T01:15:54;5.40;99.90
19941;DHT22;10132;50.864;5.176;2024-03-08T01:17:57;5.40;99.90
19941;DHT22;10132;50.864;5.176;2024-03-08T01:19:59;5.40;99.90
19941;DHT22;10132;50.864;5.176;2024-03-08T01:22:01;5.40;99.90
19941;DHT22;10132;50.864;5.176;2024-03-08T01:24:04;5.30;99.90
19941;DHT22;10132;50.864;5.176;2024-03-08T01:26:06;5.30;99.90
19941;DHT22;10132;50.864;5.176;2024-03-08T01:28:08;5.20;99.90
19941;DHT22;10132;50.864;5.176;2024-03-08T01:30:10;5.20;99.90
19941;DHT22;10132;50.864;5.176;2024-03-08T01:32:13;5.20;99.90
19941;DHT22;10132;50.864;5.176;2024-03-08T01:34:16;5.20;99.90
19941;DHT22;10132;50.864;5.176;2024-03-08T01:36:19;5.20;99.90
19941;DHT22;10132;50.864;5.176;2024-03-08T01:38:21;5.10;99.90
19941;DHT22;10132;50.864;5.176;2024-03-08T01:40:23;5.00;99.90
19941;DHT22;10132;50.864;5.176;2024-03-08T01:42:25;5.00;99.90
19941;DHT22;10132;50.864;5.176;2024-03-08T01:44:26;5.10;99.90
19941;DHT22;10132;50.864;5.176;2024-03-08T01:46:29;5.10;99.90
19941;DHT22;10132;50.864;5.176;2024-03-08T01:48:32;5.20;99.90
19941;DHT22;10132;50.864;5.176;2024-03-08T01:50:35;5.10;99.90
19941;DHT22;10132;50.864;5.176;2024-03-08T01:52:37;5.10;99.90
19941;DHT22;10132;50.864;5.176;2024-03-08T01:54:39;5.00;99.90
19941;DHT22;10132;50.864;5.176;2024-03-08T01:56:42;5.00;99.90
19941;DHT22;10132;50.864;5.176;2024-03-08T01:58:44;4.90;99.90
19941;DHT22;10132;50.864;5.176;2024-03-08T02:00:48;4.90;99.90
19941;DHT22;10132;50.864;5.176;2024-03-08T02:02:51;4.90;99.90
19941;DHT22;10132;50.864;5.176;2024-03-08T02:04:55;4.90;99.90
19941;DHT22;10132;50.864;5.176;2024-03-08T02:06:59;4.90;99.90
19941;DHT22;10132;50.864;5.176;2024-03-08T02:09:02;4.90;99.90
19941;DHT22;10132;50.864;5.176;2024-03-08T02:11:06;4.80;99.90
19941;DHT22;10132;50.864;5.176;2024-03-08T02:13:08;4.80;99.90
19941;DHT22;10132;50.864;5.176;2024-03-08T02:15:10;4.80;99.90
19941;DHT22;10132;50.864;5.176;2024-03-08T02:17:12;4.80;99.90
19941;DHT22;10132;50.864;5.176;2024-03-08T02:19:14;4.80;99.90
19941;DHT22;10132;50.864;5.176;2024-03-08T02:21:18;4.80;99.90
19941;DHT22;10132;50.864;5.176;2024-03-08T02:23:20;4.80;99.90
19941;DHT22;10132;50.864;5.176;2024-03-08T02:25:22;4.70;99.90
19941;DHT22;10132;50.864;5.176;2024-03-08T02:27:24;4.60;99.90
19941;DHT22;10132;50.864;5.176;2024-03-08T02:29:26;4.60;99.90
19941;DHT22;10132;50.864;5.176;2024-03-08T02:31:29;4.60;99.90
19941;DHT22;10132;50.864;5.176;2024-03-08T02:33:31;4.60;99.90
19941;DHT22;10132;50.864;5.176;2024-03-08T02:35:34;4.60;99.90
19941;DHT22;10132;50.864;5.176;2024-03-08T02:37:38;4.60;99.90
19941;DHT22;10132;50.864;5.176;2024-03-08T02:39:39;4.50;99.90
19941;DHT22;10132;50.864;5.176;2024-03-08T02:41:41;4.50;99.90
19941;DHT22;10132;50.864;5.176;2024-03-08T02:43:44;4.50;99.90
19941;DHT22;10132;50.864;5.176;2024-03-08T02:45:46;4.50;99.90
19941;DHT22;10132;50.864;5.176;2024-03-08T02:47:48;4.50;99.90
19941;DHT22;10132;50.864;5.176;2024-03-08T02:49:51;4.50;99.90
19941;DHT22;10132;50.864;5.176;2024-03-08T02:51:53;4.50;99.90
19941;DHT22;10132;50.864;5.176;2024-03-08T02:53:59;4.50;99.90
19941;DHT22;10132;50.864;5.176;2024-03-08T02:56:01;4.50;99.90
19941;DHT22;10132;50.864;5.176;2024-03-08T02:58:03;4.40;99.90
19941;DHT22;10132;50.864;5.176;2024-03-08T03:00:07;4.40;99.90
19941;DHT22;10132;50.864;5.176;2024-03-08T03:02:10;4.40;99.90
19941;DHT22;10132;50.864;5.176;2024-03-08T03:04:12;4.40;99.90
19941;DHT22;10132;50.864;5.176;2024-03-08T03:06:14;4.40;99.90
19941;DHT22;10132;50.864;5.176;2024-03-08T03:08:17;4.30;99.90
19941;DHT22;10132;50.864;5.176;2024-03-08T03:10:20;4.40;99.90
19941;DHT22;10132;50.864;5.176;2024-03-08T03:12:22;4.30;99.90
19941;DHT22;10132;50.864;5.176;2024-03-08T03:14:24;4.30;99.90
19941;DHT22;10132;50.864;5.176;2024-03-08T03:16:27;4.30;99.90
19941;DHT22;10132;50.864;5.176;2024-03-08T03:18:29;4.40;99.90
19941;DHT22;10132;50.864;5.176;2024-03-08T03:20:33;4.30;99.90
19941;DHT22;10132;50.864;5.176;2024-03-08T03:22:40;4.30;99.90
19941;DHT22;10132;50.864;5.176;2024-03-08T03:24:47;4.20;99.90
19941;DHT22;10132;50.864;5.176;2024-03-08T03:26:51;4.20;99.90
19941;DHT22;10132;50.864;5.176;2024-03-08T03:28:53;4.10;99.90
19941;DHT22;10132;50.864;5.176;2024-03-08T03:30:55;4.10;99.90
19941;DHT22;10132;50.864;5.176;2024-03-08T03:32:59;4.10;99.90
19941;DHT22;10132;50.864;5.176;2024-03-08T03:35:02;4.10;99.90
19941;DHT22;10132;50.864;5.176;2024-03-08T03:37:06;4.10;99.90
19941;DHT22;10132;50.864;5.176;2024-03-08T03:39:09;4.10;99.90
19941;DHT22;10132;50.864;5.176;2024-03-08T03:41:16;4.10;99.90
19941;DHT22;10132;50.864;5.176;2024-03-08T03:43:19;4.20;99.90
19941;DHT22;10132;50.864;5.176;2024-03-08T03:45:22;4.10;99.90
19941;DHT22;10132;50.864;5.176;2024-03-08T03:47:23;4.00;99.90
19941;DHT22;10132;50.864;5.176;2024-03-08T03:49:27;4.00;99.90
19941;DHT22;10132;50.864;5.176;2024-03-08T03:51:29;4.00;99.90
19941;DHT22;10132;50.864;5.176;2024-03-08T03:53:31;4.00;99.90
19941;DHT22;10132;50.864;5.176;2024-03-08T03:55:33;4.00;99.90
19941;DHT22;10132;50.864;5.176;2024-03-08T03:57:37;3.90;99.90
19941;DHT22;10132;50.864;5.176;2024-03-08T03:59:40;3.90;99.90
19941;DHT22;10132;50.864;5.176;2024-03-08T04:01:42;3.90;99.90
19941;DHT22;10132;50.864;5.176;2024-03-08T04:03:45;3.90;99.90
19941;DHT22;10132;50.864;5.176;2024-03-08T04:05:47;3.90;99.90
19941;DHT22;10132;50.864;5.176;2024-03-08T04:07:49;3.90;99.90
19941;DHT22;10132;50.864;5.176;2024-03-08T04:09:50;3.90;99.90
19941;DHT22;10132;50.864;5.176;2024-03-08T04:11:52;3.90;99.90
19941;DHT22;10132;50.864;5.176;2024-03-08T04:13:56;3.90;99.90
19941;DHT22;10132;50.864;5.176;2024-03-08T04:15:59;3.90;99.90
19941;DHT22;10132;50.864;5.176;2024-03-08T04:18:02;3.90;99.90
19941;DHT22;10132;50.864;5.176;2024-03-08T04:20:05;3.80;99.90
19941;DHT22;10132;50.864;5.176;2024-03-08T04:22:10;3.80;99.90
19941;DHT22;10132;50.864;5.176;2024-03-08T04:24:12;3.80;99.90
19941;DHT22;10132;50.864;5.176;2024-03-08T04:26:14;3.70;99.90
19941;DHT22;10132;50.864;5.176;2024-03-08T04:28:15;3.70;99.90
19941;DHT22;10132;50.864;5.176;2024-03-08T04:30:17;3.70;99.90
19941;DHT22;10132;50.864;5.176;2024-03-08T04:32:23;3.70;99.90
19941;DHT22;10132;50.864;5.176;2024-03-08T04:34:24;3.70;99.90
19941;DHT22;10132;50.864;5.176;2024-03-08T04:36:26;3.70;99.90
19941;DHT22;10132;50.864;5.176;2024-03-08T04:38:27;3.70;99.90
19941;DHT22;10132;50.864;5.176;2024-03-08T04:40:31;3.70;99.90
19941;DHT22;10132;50.864;5.176;2024-03-08T04:42:33;3.70;99.90
19941;DHT22;10132;50.864;5.176;2024-03-08T04:44:36;3.70;99.90
19941;DHT22;10132;50.864;5.176;2024-03-08T04:46:38;3.70;99.90
19941;DHT22;10132;50.864;5.176;2024-03-08T04:48:41;3.70;99.90
19941;DHT22;10132;50.864;5.176;2024-03-08T04:50:44;3.70;99.90
19941;DHT22;10132;50.864;5.176;2024-03-08T04:52:46;3.60;99.90
19941;DHT22;10132;50.864;5.176;2024-03-08T04:54:49;3.50;99.90
19941;DHT22;10132;50.864;5.176;2024-03-08T04:56:51;3.60;99.90
19941;DHT22;10132;50.864;5.176;2024-03-08T04:58:54;3.60;99.90
19941;DHT22;10132;50.864;5.176;2024-03-08T05:00:55;3.60;99.90
19941;DHT22;10132;50.864;5.176;2024-03-08T05:02:57;3.60;99.90
19941;DHT22;10132;50.864;5.176;2024-03-08T05:05:00;3.60;99.90
19941;DHT22;10132;50.864;5.176;2024-03-08T05:07:02;3.60;99.90
19941;DHT22;10132;50.864;5.176;2024-03-08T05:09:05;3.50;99.90
19941;DHT22;10132;50.864;5.176;2024-03-08T05:11:14;3.50;99.90
19941;DHT22;10132;50.864;5.176;2024-03-08T05:13:16;3.50;99.90
19941;DHT22;10132;50.864;5.176;2024-03-08T05:15:19;3.50;99.90
19941;DHT22;10132;50.864;5.176;2024-03-08T05:17:22;3.50;99.90
19941;DHT22;10132;50.864;5.176;2024-03-08T05:19:24;3.50;99.90
19941;DHT22;10132;50.864;5.176;2024-03-08T05:21:28;3.50;99.90
19941;DHT22;10132;50.864;5.176;2024-03-08T05:23:30;3.50;99.90
19941;DHT22;10132;50.864;5.176;2024-03-08T05:25:32;3.50;99.90
19941;DHT22;10132;50.864;5.176;2024-03-08T05:27:34;3.40;99.90
19941;DHT22;10132;50.864;5.176;2024-03-08T05:29:35;3.50;99.90
19941;DHT22;10132;50.864;5.176;2024-03-08T05:31:47;3.40;99.90
19941;DHT22;10132;50.864;5.176;2024-03-08T05:33:50;3.40;99.90
19941;DHT22;10132;50.864;5.176;2024-03-08T05:35:54;3.30;99.90
19941;DHT22;10132;50.864;5.176;2024-03-08T05:37:58;3.40;99.90
19941;DHT22;10132;50.864;5.176;2024-03-08T05:40:00;3.40;99.90
19941;DHT22;10132;50.864;5.176;2024-03-08T05:42:02;3.40;99.90
19941;DHT22;10132;50.864;5.176;2024-03-08T05:44:04;3.40;99.90
19941;DHT22;10132;50.864;5.176;2024-03-08T05:46:07;3.30;99.90
19941;DHT22;10132;50.864;5.176;2024-03-08T05:48:09;3.40;99.90
19941;DHT22;10132;50.864;5.176;2024-03-08T05:50:13;3.40;99.90
19941;DHT22;10132;50.864;5.176;2024-03-08T05:52:16;3.40;99.90
19941;DHT22;10132;50.864;5.176;2024-03-08T05:54:20;3.40;99.90
19941;DHT22;10132;50.864;5.176;2024-03-08T05:56:22;3.40;99.90
19941;DHT22;10132;50.864;5.176;2024-03-08T05:58:24;3.30;99.90
19941;DHT22;10132;50.864;5.176;2024-03-08T06:00:26;3.40;99.90
19941;DHT22;10132;50.864;5.176;2024-03-08T06:02:28;3.30;99.90
19941;DHT22;10132;50.864;5.176;2024-03-08T06:04:30;3.30;99.90
19941;DHT22;10132;50.864;5.176;2024-03-08T06:06:33;3.30;99.90
19941;DHT22;10132;50.864;5.176;2024-03-08T06:08:34;3.40;99.90
19941;DHT22;10132;50.864;5.176;2024-03-08T06:10:37;3.40;99.90
19941;DHT22;10132;50.864;5.176;2024-03-08T06:12:40;3.40;99.90
19941;DHT22;10132;50.864;5.176;2024-03-08T06:14:42;3.40;99.90
19941;DHT22;10132;50.864;5.176;2024-03-08T06:16:44;3.30;99.90
19941;DHT22;10132;50.864;5.176;2024-03-08T06:18:46;3.40;99.90
19941;DHT22;10132;50.864;5.176;2024-03-08T06:20:48;3.40;99.90
19941;DHT22;10132;50.864;5.176;2024-03-08T06:22:50;3.40;99.90
19941;DHT22;10132;50.864;5.176;2024-03-08T06:24:52;3.50;99.90
19941;DHT22;10132;50.864;5.176;2024-03-08T06:26:56;3.50;99.90
19941;DHT22;10132;50.864;5.176;2024-03-08T06:28:58;3.50;99.90
19941;DHT22;10132;50.864;5.176;2024-03-08T06:31:01;3.40;99.90
19941;DHT22;10132;50.864;5.176;2024-03-08T06:33:04;3.50;99.90
19941;DHT22;10132;50.864;5.176;2024-03-08T06:35:07;3.50;99.90
19941;DHT22;10132;50.864;5.176;2024-03-08T06:37:10;3.60;99.90
19941;DHT22;10132;50.864;5.176;2024-03-08T06:39:13;3.60;99.90
19941;DHT22;10132;50.864;5.176;2024-03-08T06:41:15;3.60;99.90
19941;DHT22;10132;50.864;5.176;2024-03-08T06:43:17;3.70;99.90
19941;DHT22;10132;50.864;5.176;2024-03-08T06:45:20;3.70;99.90
19941;DHT22;10132;50.864;5.176;2024-03-08T06:47:24;3.70;99.90
19941;DHT22;10132;50.864;5.176;2024-03-08T06:49:26;3.80;99.90
19941;DHT22;10132;50.864;5.176;2024-03-08T06:51:28;3.80;99.90
19941;DHT22;10132;50.864;5.176;2024-03-08T06:53:31;3.80;99.90
19941;DHT22;10132;50.864;5.176;2024-03-08T06:55:35;3.90;99.90
19941;DHT22;10132;50.864;5.176;2024-03-08T06:57:37;3.90;99.90
19941;DHT22;10132;50.864;5.176;2024-03-08T06:59:42;4.00;99.90
19941;DHT22;10132;50.864;5.176;2024-03-08T07:01:45;4.00;99.90
19941;DHT22;10132;50.864;5.176;2024-03-08T07:03:49;4.00;99.90
19941;DHT22;10132;50.864;5.176;2024-03-08T07:05:50;4.10;99.90
19941;DHT22;10132;50.864;5.176;2024-03-08T07:07:52;4.10;99.90
19941;DHT22;10132;50.864;5.176;2024-03-08T07:09:55;4.20;99.90
19941;DHT22;10132;50.864;5.176;2024-03-08T07:11:57;4.30;99.90
19941;DHT22;10132;50.864;5.176;2024-03-08T07:13:59;4.30;99.90
19941;DHT22;10132;50.864;5.176;2024-03-08T07:16:05;4.40;99.90
19941;DHT22;10132;50.864;5.176;2024-03-08T07:18:08;4.50;99.90
19941;DHT22;10132;50.864;5.176;2024-03-08T07:20:15;4.60;99.90
19941;DHT22;10132;50.864;5.176;2024-03-08T07:22:19;4.60;99.90
19941;DHT22;10132;50.864;5.176;2024-03-08T07:24:23;4.70;99.90
19941;DHT22;10132;50.864;5.176;2024-03-08T07:26:38;4.70;99.90
19941;DHT22;10132;50.864;5.176;2024-03-08T07:28:40;4.70;99.90
19941;DHT22;10132;50.864;5.176;2024-03-08T07:30:41;4.80;99.90
19941;DHT22;10132;50.864;5.176;2024-03-08T07:33:10;4.90;99.90
19941;DHT22;10132;50.864;5.176;2024-03-08T07:35:13;5.00;99.90
19941;DHT22;10132;50.864;5.176;2024-03-08T07:37:14;5.20;99.90
19941;DHT22;10132;50.864;5.176;2024-03-08T07:39:16;5.20;99.90
19941;DHT22;10132;50.864;5.176;2024-03-08T07:41:19;5.30;99.90
19941;DHT22;10132;50.864;5.176;2024-03-08T07:43:20;5.50;99.90
19941;DHT22;10132;50.864;5.176;2024-03-08T07:45:22;5.50;99.90
19941;DHT22;10132;50.864;5.176;2024-03-08T07:47:23;5.60;99.90
19941;DHT22;10132;50.864;5.176;2024-03-08T07:49:28;5.70;99.90
19941;DHT22;10132;50.864;5.176;2024-03-08T07:51:30;5.70;99.90
19941;DHT22;10132;50.864;5.176;2024-03-08T07:53:32;5.80;99.90
19941;DHT22;10132;50.864;5.176;2024-03-08T07:55:35;5.80;99.90
19941;DHT22;10132;50.864;5.176;2024-03-08T07:57:37;6.00;99.90
19941;DHT22;10132;50.864;5.176;2024-03-08T07:59:38;6.10;99.90
19941;DHT22;10132;50.864;5.176;2024-03-08T08:01:40;6.10;99.90
19941;DHT22;10132;50.864;5.176;2024-03-08T08:03:45;6.20;99.90
19941;DHT22;10132;50.864;5.176;2024-03-08T08:05:50;6.30;99.90
19941;DHT22;10132;50.864;5.176;2024-03-08T08:07:51;6.20;99.90
19941;DHT22;10132;50.864;5.176;2024-03-08T08:09:53;6.40;99.90
19941;DHT22;10132;50.864;5.176;2024-03-08T08:11:55;6.50;99.90
19941;DHT22;10132;50.864;5.176;2024-03-08T08:13:57;6.70;99.90
19941;DHT22;10132;50.864;5.176;2024-03-08T08:16:00;6.80;99.90
19941;DHT22;10132;50.864;5.176;2024-03-08T08:18:02;6.80;99.90
19941;DHT22;10132;50.864;5.176;2024-03-08T08:20:06;7.00;99.90
19941;DHT22;10132;50.864;5.176;2024-03-08T08:22:09;7.00;99.90
19941;DHT22;10132;50.864;5.176;2024-03-08T08:24:12;7.00;99.90
19941;DHT22;10132;50.864;5.176;2024-03-08T08:26:14;7.00;99.90
19941;DHT22;10132;50.864;5.176;2024-03-08T08:28:16;7.10;99.90
19941;DHT22;10132;50.864;5.176;2024-03-08T08:30:19;7.20;99.90
19941;DHT22;10132;50.864;5.176;2024-03-08T08:32:21;7.20;99.90
19941;DHT22;10132;50.864;5.176;2024-03-08T08:34:23;7.30;99.90
19941;DHT22;10132;50.864;5.176;2024-03-08T08:36:27;7.30;99.90
19941;DHT22;10132;50.864;5.176;2024-03-08T08:38:31;7.60;99.90
19941;DHT22;10132;50.864;5.176;2024-03-08T08:40:33;7.70;99.90
19941;DHT22;10132;50.864;5.176;2024-03-08T08:42:36;7.90;99.90
19941;DHT22;10132;50.864;5.176;2024-03-08T08:44:39;7.90;99.90
19941;DHT22;10132;50.864;5.176;2024-03-08T08:46:41;7.80;99.90
19941;DHT22;10132;50.864;5.176;2024-03-08T08:48:42;7.90;99.90
19941;DHT22;10132;50.864;5.176;2024-03-08T08:50:45;7.90;99.90
19941;DHT22;10132;50.864;5.176;2024-03-08T08:52:48;8.00;99.90
19941;DHT22;10132;50.864;5.176;2024-03-08T08:54:52;8.10;99.90
19941;DHT22;10132;50.864;5.176;2024-03-08T08:56:54;8.10;99.90
19941;DHT22;10132;50.864;5.176;2024-03-08T08:58:56;8.20;99.90
19941;DHT22;10132;50.864;5.176;2024-03-08T09:00:58;8.20;99.90
19941;DHT22;10132;50.864;5.176;2024-03-08T09:03:02;8.20;99.90
19941;DHT22;10132;50.864;5.176;2024-03-08T09:05:05;8.40;99.90
19941;DHT22;10132;50.864;5.176;2024-03-08T09:07:06;8.40;99.90
19941;DHT22;10132;50.864;5.176;2024-03-08T09:09:08;8.60;99.90
19941;DHT22;10132;50.864;5.176;2024-03-08T09:11:13;8.70;99.90
19941;DHT22;10132;50.864;5.176;2024-03-08T09:13:15;8.70;99.90
19941;DHT22;10132;50.864;5.176;2024-03-08T09:15:18;8.80;99.90
19941;DHT22;10132;50.864;5.176;2024-03-08T09:17:21;8.90;99.90
19941;DHT22;10132;50.864;5.176;2024-03-08T09:19:23;9.10;99.90
19941;DHT22;10132;50.864;5.176;2024-03-08T09:21:26;9.20;99.90
19941;DHT22;10132;50.864;5.176;2024-03-08T09:23:28;9.30;99.90
19941;DHT22;10132;50.864;5.176;2024-03-08T09:25:30;9.40;99.90
19941;DHT22;10132;50.864;5.176;2024-03-08T09:27:34;9.50;99.90
19941;DHT22;10132;50.864;5.176;2024-03-08T09:29:36;9.40;99.90
19941;DHT22;10132;50.864;5.176;2024-03-08T09:31:37;9.40;99.90
19941;DHT22;10132;50.864;5.176;2024-03-08T09:33:40;9.50;99.90
19941;DHT22;10132;50.864;5.176;2024-03-08T09:35:43;9.40;99.90
19941;DHT22;10132;50.864;5.176;2024-03-08T09:37:47;9.50;99.90
19941;DHT22;10132;50.864;5.176;2024-03-08T09:39:52;9.50;99.90
19941;DHT22;10132;50.864;5.176;2024-03-08T09:41:54;9.50;99.90
19941;DHT22;10132;50.864;5.176;2024-03-08T09:43:57;9.60;99.90
19941;DHT22;10132;50.864;5.176;2024-03-08T09:46:00;9.80;99.90
19941;DHT22;10132;50.864;5.176;2024-03-08T09:48:03;9.70;99.90
19941;DHT22;10132;50.864;5.176;2024-03-08T09:50:06;10.00;99.90
19941;DHT22;10132;50.864;5.176;2024-03-08T09:52:10;10.40;99.90
19941;DHT22;10132;50.864;5.176;2024-03-08T09:54:13;10.40;99.90
19941;DHT22;10132;50.864;5.176;2024-03-08T09:56:17;10.60;99.90
19941;DHT22;10132;50.864;5.176;2024-03-08T09:58:19;10.60;99.90
19941;DHT22;10132;50.864;5.176;2024-03-08T10:00:38;11.00;99.90
19941;DHT22;10132;50.864;5.176;2024-03-08T10:02:41;11.30;99.90
19941;DHT22;10132;50.864;5.176;2024-03-08T10:04:44;11.40;99.90
19941;DHT22;10132;50.864;5.176;2024-03-08T10:06:48;11.30;83.00
19941;DHT22;10132;50.864;5.176;2024-03-08T10:08:50;11.30;95.80
19941;DHT22;10132;50.864;5.176;2024-03-08T10:10:53;11.50;97.30
19941;DHT22;10132;50.864;5.176;2024-03-08T10:12:55;11.50;99.90
19941;DHT22;10132;50.864;5.176;2024-03-08T10:14:58;11.40;99.90
19941;DHT22;10132;50.864;5.176;2024-03-08T10:17:03;11.30;99.00
19941;DHT22;10132;50.864;5.176;2024-03-08T10:19:06;11.60;99.90
19941;DHT22;10132;50.864;5.176;2024-03-08T10:21:09;11.40;86.10
19941;DHT22;10132;50.864;5.176;2024-03-08T10:23:11;11.20;57.50
19941;DHT22;10132;50.864;5.176;2024-03-08T10:25:14;11.30;94.60
19941;DHT22;10132;50.864;5.176;2024-03-08T10:27:17;11.60;99.90
19941;DHT22;10132;50.864;5.176;2024-03-08T10:29:19;11.70;48.50
19941;DHT22;10132;50.864;5.176;2024-03-08T10:31:21;11.70;57.80
19941;DHT22;10132;50.864;5.176;2024-03-08T10:33:25;11.90;99.90
19941;DHT22;10132;50.864;5.176;2024-03-08T10:35:27;11.90;57.20
19941;DHT22;10132;50.864;5.176;2024-03-08T10:37:29;12.00;74.00
19941;DHT22;10132;50.864;5.176;2024-03-08T10:39:35;12.10;99.90
19941;DHT22;10132;50.864;5.176;2024-03-08T10:41:39;12.40;54.90
19941;DHT22;10132;50.864;5.176;2024-03-08T10:43:57;12.30;78.90
19941;DHT22;10132;50.864;5.176;2024-03-08T10:46:15;12.40;89.50
19941;DHT22;10132;50.864;5.176;2024-03-08T10:48:28;12.40;48.80
19941;DHT22;10132;50.864;5.176;2024-03-08T10:50:33;12.50;91.70
19941;DHT22;10132;50.864;5.176;2024-03-08T10:52:36;12.70;99.90
19941;DHT22;10132;50.864;5.176;2024-03-08T10:54:39;12.90;93.10
19941;DHT22;10132;50.864;5.176;2024-03-08T10:56:43;12.60;10.90
19941;DHT22;10132;50.864;5.176;2024-03-08T10:58:46;12.70;12.00
19941;DHT22;10132;50.864;5.176;2024-03-08T11:00:50;12.70;35.00
19941;DHT22;10132;50.864;5.176;2024-03-08T11:02:52;12.80;13.40
19941;DHT22;10132;50.864;5.176;2024-03-08T11:04:56;12.70;7.50
19941;DHT22;10132;50.864;5.176;2024-03-08T11:07:01;12.80;73.60
19941;DHT22;10132;50.864;5.176;2024-03-08T11:09:08;12.80;68.30
19941;DHT22;10132;50.864;5.176;2024-03-08T11:11:28;12.80;27.90
19941;DHT22;10132;50.864;5.176;2024-03-08T11:13:35;13.10;68.20
19941;DHT22;10132;50.864;5.176;2024-03-08T11:15:39;13.10;1.00
19941;DHT22;10132;50.864;5.176;2024-03-08T11:17:45;13.10;18.10
19941;DHT22;10132;50.864;5.176;2024-03-08T11:19:48;13.50;36.80
19941;DHT22;10132;50.864;5.176;2024-03-08T11:21:59;13.80;67.40
19941;DHT22;10132;50.864;5.176;2024-03-08T11:24:00;14.00;43.50
19941;DHT22;10132;50.864;5.176;2024-03-08T11:26:03;13.90;1.00
19941;DHT22;10132;50.864;5.176;2024-03-08T11:28:13;13.80;6.60
19941;DHT22;10132;50.864;5.176;2024-03-08T11:30:22;13.70;1.00
19941;DHT22;10132;50.864;5.176;2024-03-08T11:32:27;13.80;1.00
19941;DHT22;10132;50.864;5.176;2024-03-08T11:34:29;13.80;1.00
19941;DHT22;10132;50.864;5.176;2024-03-08T11:36:35;13.80;1.00
19941;DHT22;10132;50.864;5.176;2024-03-08T11:38:42;13.80;1.00
19941;DHT22;10132;50.864;5.176;2024-03-08T11:40:46;13.90;8.20
19941;DHT22;10132;50.864;5.176;2024-03-08T11:42:50;13.90;1.00
19941;DHT22;10132;50.864;5.176;2024-03-08T11:44:53;13.90;1.00
19941;DHT22;10132;50.864;5.176;2024-03-08T11:46:54;13.90;96.60
19941;DHT22;10132;50.864;5.176;2024-03-08T11:48:56;14.10;1.00
19941;DHT22;10132;50.864;5.176;2024-03-08T11:50:59;14.30;1.00
19941;DHT22;10132;50.864;5.176;2024-03-08T11:53:03;14.40;2.40
19941;DHT22;10132;50.864;5.176;2024-03-08T11:55:07;14.50;1.00
19941;DHT22;10132;50.864;5.176;2024-03-08T11:57:09;14.60;8.40
19941;DHT22;10132;50.864;5.176;2024-03-08T11:59:12;14.70;1.00
19941;DHT22;10132;50.864;5.176;2024-03-08T12:01:14;14.60;1.00
19941;DHT22;10132;50.864;5.176;2024-03-08T12:03:17;14.60;1.00
19941;DHT22;10132;50.864;5.176;2024-03-08T12:05:21;14.70;27.70
19941;DHT22;10132;50.864;5.176;2024-03-08T12:07:22;15.00;1.00
19941;DHT22;10132;50.864;5.176;2024-03-08T12:09:24;15.10;1.00
19941;DHT22;10132;50.864;5.176;2024-03-08T12:11:28;15.10;1.00
19941;DHT22;10132;50.864;5.176;2024-03-08T12:13:32;15.00;1.00
19941;DHT22;10132;50.864;5.176;2024-03-08T12:15:35;15.20;1.00
19941;DHT22;10132;50.864;5.176;2024-03-08T12:17:37;15.40;1.00
19941;DHT22;10132;50.864;5.176;2024-03-08T12:19:40;15.40;1.00
19941;DHT22;10132;50.864;5.176;2024-03-08T12:21:47;15.20;1.00
19941;DHT22;10132;50.864;5.176;2024-03-08T12:24:02;15.20;1.00
19941;DHT22;10132;50.864;5.176;2024-03-08T12:26:12;15.10;1.00
19941;DHT22;10132;50.864;5.176;2024-03-08T12:28:16;15.20;25.70
19941;DHT22;10132;50.864;5.176;2024-03-08T12:30:23;15.30;1.00
19941;DHT22;10132;50.864;5.176;2024-03-08T12:32:27;15.50;1.00
19941;DHT22;10132;50.864;5.176;2024-03-08T12:34:29;15.60;1.00
19941;DHT22;10132;50.864;5.176;2024-03-08T12:36:32;15.90;1.00
19941;DHT22;10132;50.864;5.176;2024-03-08T12:38:33;16.00;1.00
19941;DHT22;10132;50.864;5.176;2024-03-08T12:40:38;16.00;1.00
19941;DHT22;10132;50.864;5.176;2024-03-08T12:42:42;16.00;1.00
19941;DHT22;10132;50.864;5.176;2024-03-08T12:44:46;16.10;1.00
19941;DHT22;10132;50.864;5.176;2024-03-08T12:46:49;16.30;1.00
19941;DHT22;10132;50.864;5.176;2024-03-08T12:48:52;16.10;1.00
19941;DHT22;10132;50.864;5.176;2024-03-08T12:50:54;16.10;1.00
19941;DHT22;10132;50.864;5.176;2024-03-08T12:52:56;16.10;1.00
19941;DHT22;10132;50.864;5.176;2024-03-08T12:54:58;16.10;1.00
19941;DHT22;10132;50.864;5.176;2024-03-08T12:57:03;16.30;1.00
19941;DHT22;10132;50.864;5.176;2024-03-08T12:59:06;16.30;1.00
19941;DHT22;10132;50.864;5.176;2024-03-08T13:01:10;16.60;1.00
19941;DHT22;10132;50.864;5.176;2024-03-08T13:03:12;16.50;1.00
19941;DHT22;10132;50.864;5.176;2024-03-08T13:05:14;16.60;1.00
19941;DHT22;10132;50.864;5.176;2024-03-08T13:07:17;16.70;1.00
19941;DHT22;10132;50.864;5.176;2024-03-08T13:09:19;16.90;1.00